Time;durP1;ratioP1;P1;durP2;ratioP2;P2;SDS_P1;SDS_P2;PMS_P1;PMS_P2;Temp;Humidity;BMP_temperature;BMP_pressure;BME280_temperature;BME280_humidity;BME280_pressure;Samples;Min_cycle;Max_cycle;Signal;HPM_P1;HPM_P2
2021/08/08 00:01:22;;;;;;;6.17;4.57;;;;;;;16.60;73.10;99324.98;154565;1098;103109;-75
2021/08/08 00:04:25;;;;;;;5.03;4.53;;;;;;;16.67;73.00;99320.39;154043;1100;103529;-74
2021/08/08 00:07:28;;;;;;;6.05;5.10;;;;;;;16.72;73.09;99322.42;153945;1100;103257;-75
2021/08/08 00:10:31;;;;;;;5.97;5.00;;;;;;;16.73;72.90;99327.59;153941;1093;103194;-75
2021/08/08 00:13:34;;;;;;;6.10;4.83;;;;;;;16.73;73.20;99324.09;154573;1098;103544;-74
2021/08/08 00:16:37;;;;;;;7.43;4.50;;;;;;;16.74;73.51;99315.77;153964;1100;103096;-74
2021/08/08 00:19:40;;;;;;;8.95;5.45;;;;;;;16.78;73.18;99306.23;153912;1094;103159;-74
2021/08/08 00:22:43;;;;;;;8.15;7.35;;;;;;;16.83;73.40;99303.73;153998;1094;103126;-72
2021/08/08 00:25:45;;;;;;;10.20;8.27;;;;;;;16.89;73.14;99307.42;154573;1098;103131;-75
2021/08/08 00:28:49;;;;;;;11.07;7.80;;;;;;;16.94;73.43;99302.22;154537;1098;103192;-74
2021/08/08 00:31:51;;;;;;;10.38;8.45;;;;;;;16.99;73.32;99302.37;153964;1100;103221;-75
2021/08/08 00:34:54;;;;;;;8.70;7.03;;;;;;;17.02;73.51;99296.55;154571;1093;103112;-75
2021/08/08 00:37:58;;;;;;;9.27;7.00;;;;;;;17.07;73.40;99285.95;153970;1094;103189;-76
2021/08/08 00:41:02;;;;;;;10.28;7.93;;;;;;;17.13;73.27;99283.41;153949;1100;103276;-74
2021/08/08 00:44:06;;;;;;;9.03;7.70;;;;;;;17.19;73.36;99274.46;154520;1098;103128;-75
2021/08/08 00:47:10;;;;;;;8.55;7.65;;;;;;;17.24;73.47;99271.91;154011;1100;103525;-75
2021/08/08 00:50:16;;;;;;;8.35;6.80;;;;;;;17.25;73.46;99274.39;153952;1094;103154;-75
2021/08/08 00:53:19;;;;;;;6.40;5.03;;;;;;;17.30;73.54;99264.81;154008;1100;103197;-74
2021/08/08 00:56:23;;;;;;;6.68;5.33;;;;;;;17.35;73.39;99257.70;153986;1093;103250;-75
2021/08/08 00:59:26;;;;;;;5.83;4.67;;;;;;;17.39;73.45;99253.52;154022;1100;103231;-75
2021/08/08 01:02:32;;;;;;;6.25;4.98;;;;;;;17.43;73.54;99257.41;154541;1093;103282;-75
2021/08/08 01:05:41;;;;;;;5.68;4.95;;;;;;;17.45;73.45;99246.41;154540;1098;103550;-74
2021/08/08 01:08:51;;;;;;;8.53;5.58;;;;;;;17.46;73.49;99242.69;154224;1093;103178;-75
2021/08/08 01:11:56;;;;;;;6.57;5.73;;;;;;;17.47;73.60;99244.31;154021;1093;103218;-75
2021/08/08 01:15:00;;;;;;;8.13;6.23;;;;;;;17.52;73.43;99241.78;154021;1100;103141;-75
2021/08/08 01:18:06;;;;;;;9.05;5.98;;;;;;;17.55;73.63;99233.26;154013;1093;103199;-74
2021/08/08 01:21:09;;;;;;;7.00;5.93;;;;;;;17.61;73.67;99236.91;154559;1098;103187;-74
2021/08/08 01:24:13;;;;;;;8.18;6.20;;;;;;;17.63;73.60;99232.14;154017;1100;103164;-75
2021/08/08 01:27:18;;;;;;;6.97;5.80;;;;;;;17.62;73.55;99225.89;154654;1093;103192;-74
2021/08/08 01:30:21;;;;;;;6.38;5.20;;;;;;;17.63;73.75;99218.65;154147;1098;103243;-75
2021/08/08 01:33:26;;;;;;;9.28;5.63;;;;;;;17.68;73.87;99207.98;154608;1098;103126;-74
2021/08/08 01:36:35;;;;;;;6.18;5.38;;;;;;;17.73;73.84;99215.42;153940;1100;103107;-74
2021/08/08 01:39:41;;;;;;;6.23;5.20;;;;;;;17.76;73.82;99196.07;154194;1099;103291;-75
2021/08/08 01:42:46;;;;;;;5.93;5.30;;;;;;;17.78;73.85;99197.52;154587;1093;103278;-75
2021/08/08 01:45:50;;;;;;;7.80;5.53;;;;;;;17.78;73.80;99186.72;154576;1093;103143;-74
2021/08/08 01:48:56;;;;;;;6.40;5.20;;;;;;;17.78;74.00;99180.47;153975;1094;103104;-75
2021/08/08 01:52:00;;;;;;;5.40;4.45;;;;;;;17.80;74.15;99181.07;154151;1098;103186;-75
2021/08/08 01:55:08;;;;;;;6.03;4.48;;;;;;;17.81;74.14;99180.03;154603;1093;103120;-74
2021/08/08 01:58:21;;;;;;;6.30;4.88;;;;;;;17.81;74.16;99170.06;154009;1094;103336;-74
2021/08/08 02:01:28;;;;;;;6.03;4.85;;;;;;;17.80;74.27;99167.58;154597;1093;103196;-74
2021/08/08 02:04:35;;;;;;;6.10;4.43;;;;;;;17.76;74.28;99172.60;153927;1100;103183;-75
2021/08/08 02:07:46;;;;;;;5.83;4.50;;;;;;;17.77;74.40;99170.75;153969;1100;103305;-74
2021/08/08 02:10:49;;;;;;;5.20;4.50;;;;;;;17.77;74.39;99154.56;154596;1093;103119;-75
2021/08/08 02:13:54;;;;;;;5.67;4.73;;;;;;;17.80;74.54;99151.39;153937;1093;103259;-75
2021/08/08 02:16:58;;;;;;;5.35;4.85;;;;;;;17.83;74.53;99153.65;154634;1093;103152;-74
2021/08/08 02:20:01;;;;;;;5.35;4.83;;;;;;;17.83;74.50;99150.95;153927;1093;103125;-75
2021/08/08 02:23:08;;;;;;;6.15;4.78;;;;;;;17.85;74.72;99165.06;154561;1093;103125;-74
2021/08/08 02:26:12;;;;;;;6.10;4.15;;;;;;;17.88;74.69;99156.53;154007;1094;103152;-74
2021/08/08 02:29:18;;;;;;;6.03;4.43;;;;;;;17.94;74.79;99163.70;153962;1094;103381;-75
2021/08/08 02:32:21;;;;;;;7.68;5.05;;;;;;;17.96;74.96;99145.41;153975;1093;103487;-75
2021/08/08 02:35:24;;;;;;;5.20;4.70;;;;;;;17.98;75.20;99116.31;154610;1093;103156;-75
2021/08/08 02:38:27;;;;;;;5.95;4.65;;;;;;;17.98;75.37;99126.30;154514;1093;103190;-75
2021/08/08 02:41:35;;;;;;;4.73;4.07;;;;;;;17.99;75.69;99126.04;153993;1100;103183;-74
2021/08/08 02:44:37;;;;;;;5.20;4.40;;;;;;;18.02;75.55;99128.29;154559;1093;103413;-75
2021/08/08 02:47:41;;;;;;;6.23;4.87;;;;;;;18.05;75.55;99125.14;153956;1093;103131;-74
2021/08/08 02:50:45;;;;;;;5.70;5.10;;;;;;;18.04;75.51;99126.19;154532;1098;103144;-75
2021/08/08 02:53:48;;;;;;;4.93;4.13;;;;;;;18.03;75.78;99124.55;153986;1100;103131;-75
2021/08/08 02:56:51;;;;;;;4.83;4.20;;;;;;;18.07;75.80;99129.48;154163;1098;103128;-75
2021/08/08 02:59:55;;;;;;;5.50;4.30;;;;;;;18.11;75.98;99130.66;154005;1093;103306;-73
2021/08/08 03:02:58;;;;;;;6.63;5.17;;;;;;;18.11;75.97;99130.66;154010;1100;103215;-75
2021/08/08 03:06:01;;;;;;;6.08;4.85;;;;;;;18.09;76.07;99133.61;154570;1093;103588;-75
2021/08/08 03:09:04;;;;;;;5.93;4.10;;;;;;;18.10;76.20;99115.53;153964;1093;103548;-74
2021/08/08 03:12:09;;;;;;;6.83;4.30;;;;;;;18.08;76.39;99123.03;154539;1093;103116;-75
2021/08/08 03:15:15;;;;;;;5.05;4.53;;;;;;;18.12;76.47;99126.92;153960;1093;103468;-76
2021/08/08 03:18:19;;;;;;;5.27;4.57;;;;;;;18.15;76.41;99131.84;154652;1093;103122;-75
2021/08/08 03:21:22;;;;;;;6.53;4.90;;;;;;;18.15;76.27;99131.84;154129;1098;103190;-75
2021/08/08 03:24:25;;;;;;;5.95;4.55;;;;;;;18.14;76.48;99125.63;153958;1100;103198;-76
2021/08/08 03:27:28;;;;;;;4.73;4.13;;;;;;;18.16;76.52;99144.30;153986;1100;103155;-74
2021/08/08 03:30:31;;;;;;;6.67;4.70;;;;;;;18.18;76.74;99198.89;154081;1093;103320;-75
2021/08/08 03:33:34;;;;;;;6.17;4.57;;;;;;;18.18;76.62;99202.41;153996;1100;103144;-75
2021/08/08 03:36:38;;;;;;;6.10;4.50;;;;;;;18.17;77.23;99211.58;154537;1093;103128;-76
2021/08/08 03:39:41;;;;;;;5.00;4.03;;;;;;;18.17;77.08;99191.86;153948;1094;103120;-73
2021/08/08 03:42:44;;;;;;;5.17;3.87;;;;;;;18.18;77.10;99191.61;154496;1093;103128;-76
2021/08/08 03:45:48;;;;;;;5.27;3.93;;;;;;;18.22;76.99;99192.79;153990;1093;103144;-75
2021/08/08 03:48:51;;;;;;;5.63;4.27;;;;;;;18.23;77.06;99182.84;153970;1100;103197;-75
2021/08/08 03:51:53;;;;;;;5.23;4.40;;;;;;;18.23;77.32;99188.23;154140;1098;103161;-75
2021/08/08 03:54:57;;;;;;;5.83;4.20;;;;;;;18.22;77.31;99191.98;153933;1093;103144;-75
2021/08/08 03:58:00;;;;;;;4.90;3.67;;;;;;;18.22;77.34;99214.39;154617;1093;103142;-76
2021/08/08 04:01:04;;;;;;;4.15;3.75;;;;;;;18.24;77.42;99238.47;153949;1093;103272;-75
2021/08/08 04:04:08;;;;;;;6.10;4.07;;;;;;;18.24;77.53;99241.17;153956;1093;103197;-76
2021/08/08 04:07:11;;;;;;;5.50;4.87;;;;;;;18.22;77.17;99235.18;154001;1093;103214;-75
2021/08/08 04:10:14;;;;;;;5.50;4.37;;;;;;;18.20;77.68;99227.30;154437;1093;103259;-76
2021/08/08 04:13:17;;;;;;;6.17;3.80;;;;;;;18.21;77.83;99222.75;154581;1093;103172;-75
2021/08/08 04:16:20;;;;;;;5.30;4.00;;;;;;;18.22;77.84;99205.48;154117;1098;103208;-75
2021/08/08 04:19:23;;;;;;;5.93;4.60;;;;;;;18.20;77.93;99200.30;153993;1100;103193;-75
2021/08/08 04:22:26;;;;;;;6.07;4.10;;;;;;;18.17;78.23;99198.08;153977;1100;103279;-76
2021/08/08 04:25:29;;;;;;;4.53;3.90;;;;;;;18.18;78.06;99206.98;154542;1093;103184;-75
2021/08/08 04:28:39;;;;;;;5.60;3.97;;;;;;;18.20;78.17;99204.88;154022;1100;103208;-75
2021/08/08 04:31:42;;;;;;;5.38;4.28;;;;;;;18.24;78.14;99208.77;154568;1093;103273;-75
2021/08/08 04:34:45;;;;;;;5.60;4.33;;;;;;;18.23;78.12;99207.14;154016;1093;103144;-76
2021/08/08 04:37:48;;;;;;;5.00;4.27;;;;;;;18.23;78.34;99216.05;154588;1093;103557;-75
2021/08/08 04:40:51;;;;;;;4.60;3.67;;;;;;;18.27;78.36;99221.02;154580;1093;103279;-75
2021/08/08 04:43:54;;;;;;;4.93;4.00;;;;;;;18.32;78.38;99213.88;153950;1100;103144;-75
2021/08/08 04:46:56;;;;;;;5.70;4.20;;;;;;;18.38;78.60;99222.91;154541;1098;103353;-75
2021/08/08 04:49:59;;;;;;;5.60;3.83;;;;;;;18.49;78.82;99224.02;153991;1100;103292;-75
2021/08/08 04:53:03;;;;;;;5.43;3.83;;;;;;;18.65;78.65;99223.37;153955;1093;103192;-75
2021/08/08 04:56:06;;;;;;;5.27;4.20;;;;;;;18.83;78.78;99212.48;153940;1100;103189;-75
2021/08/08 04:59:10;;;;;;;6.95;4.10;;;;;;;19.02;78.57;99212.41;154626;1098;103061;-74
2021/08/08 05:02:20;;;;;;;6.03;4.70;;;;;;;19.16;78.52;99216.52;153981;1100;103679;-75
2021/08/08 05:05:23;;;;;;;4.78;3.85;;;;;;;19.30;78.42;99216.28;154572;1093;103121;-76
2021/08/08 05:08:26;;;;;;;4.85;4.10;;;;;;;19.42;78.42;99214.41;153970;1093;103188;-75
2021/08/08 05:11:30;;;;;;;4.13;3.73;;;;;;;19.53;78.37;99201.91;154534;1098;103124;-75
2021/08/08 05:14:33;;;;;;;5.50;4.10;;;;;;;19.63;78.58;99212.98;154010;1093;103148;-75
2021/08/08 05:17:36;;;;;;;5.97;4.10;;;;;;;19.69;78.45;99205.77;154213;1098;103328;-75
2021/08/08 05:20:39;;;;;;;5.40;3.90;;;;;;;19.77;78.56;99210.86;154020;1093;103157;-75
2021/08/08 05:23:44;;;;;;;6.60;3.60;;;;;;;19.84;78.37;99227.77;154541;1098;103489;-76
2021/08/08 05:26:48;;;;;;;5.23;3.88;;;;;;;19.89;78.19;99230.59;154148;1098;103195;-75
2021/08/08 05:29:52;;;;;;;4.88;3.85;;;;;;;19.96;78.44;99239.41;154633;1098;103464;-75
2021/08/08 05:32:55;;;;;;;5.20;4.60;;;;;;;20.01;78.46;99246.80;153952;1100;103270;-75
2021/08/08 05:35:58;;;;;;;6.05;4.20;;;;;;;20.06;78.40;99248.80;154589;1093;103128;-75
2021/08/08 05:39:02;;;;;;;5.80;3.83;;;;;;;20.14;78.34;99268.20;153939;1100;103151;-75
2021/08/08 05:42:06;;;;;;;6.70;4.50;;;;;;;20.16;78.31;99265.25;154612;1093;103188;-76
2021/08/08 05:45:10;;;;;;;4.50;4.05;;;;;;;20.16;78.30;99265.25;154018;1100;103563;-76
2021/08/08 05:48:14;;;;;;;4.70;3.90;;;;;;;20.10;78.41;99271.63;154600;1098;104063;-75
2021/08/08 05:51:17;;;;;;;5.30;3.97;;;;;;;20.07;78.38;99274.81;154591;1093;103138;-76
2021/08/08 05:54:20;;;;;;;4.80;3.85;;;;;;;20.08;78.53;99279.17;153940;1094;103171;-76
2021/08/08 05:57:23;;;;;;;5.03;3.70;;;;;;;20.14;78.53;99299.88;153970;1093;103210;-75
2021/08/08 06:00:25;;;;;;;4.90;4.10;;;;;;;20.14;78.35;99297.98;154022;1100;103207;-76
2021/08/08 06:03:31;;;;;;;5.85;4.58;;;;;;;20.08;78.41;99300.84;154671;1093;103256;-76
2021/08/08 06:06:35;;;;;;;4.80;4.03;;;;;;;20.09;78.64;99313.30;153984;1093;103480;-75
2021/08/08 06:09:38;;;;;;;6.40;4.30;;;;;;;20.10;78.63;99304.95;153976;1093;103098;-75
2021/08/08 06:12:40;;;;;;;5.03;4.00;;;;;;;20.14;78.60;99302.59;154167;1093;103180;-75
2021/08/08 06:15:44;;;;;;;6.10;4.70;;;;;;;20.16;78.52;99309.40;153987;1093;103125;-76
2021/08/08 06:18:47;;;;;;;6.50;4.67;;;;;;;20.13;78.52;99314.47;154566;1093;103197;-75
2021/08/08 06:21:50;;;;;;;8.07;5.27;;;;;;;20.10;78.66;99310.36;154097;1093;103123;-75
2021/08/08 06:24:54;;;;;;;6.90;4.50;;;;;;;20.07;78.43;99320.84;154588;1098;103214;-75
2021/08/08 06:27:56;;;;;;;6.07;4.50;;;;;;;20.07;78.75;99331.68;153986;1094;103192;-77
2021/08/08 06:31:00;;;;;;;7.47;5.30;;;;;;;20.10;78.70;99352.88;154600;1098;103110;-75
2021/08/08 06:34:03;;;;;;;6.45;5.25;;;;;;;20.08;78.61;99355.00;153992;1093;103276;-76
2021/08/08 06:37:06;;;;;;;6.23;5.60;;;;;;;20.00;78.57;99359.72;154676;1093;103097;-75
2021/08/08 06:40:14;;;;;;;5.73;5.23;;;;;;;19.94;78.47;99371.50;154592;1093;103590;-75
2021/08/08 06:43:17;;;;;;;6.40;5.80;;;;;;;19.87;78.55;99384.32;154036;1100;103196;-73
2021/08/08 06:46:21;;;;;;;7.63;6.00;;;;;;;19.84;78.90;99401.02;154623;1093;103096;-75
2021/08/08 06:49:24;;;;;;;11.60;9.00;;;;;;;19.77;78.40;99419.28;153991;1094;103274;-76
2021/08/08 06:52:26;;;;;;;10.00;9.00;;;;;;;19.83;78.64;99412.92;154225;1093;103262;-75
2021/08/08 06:55:29;;;;;;;9.45;8.55;;;;;;;19.93;78.34;99423.17;154432;1093;103601;-75
2021/08/08 06:59:21;;;;;;;9.10;8.20;;;;;;;19.94;78.39;99428.36;154141;1100;103145;-73
2021/08/08 07:02:25;;;;;;;10.03;9.03;;;;;;;19.86;78.33;99454.94;154103;1100;103123;-75
2021/08/08 07:05:28;;;;;;;9.38;8.48;;;;;;;19.76;78.19;99461.74;154140;1094;103273;-76
2021/08/08 07:08:32;;;;;;;8.93;8.03;;;;;;;19.66;78.14;99463.36;154072;1093;103114;-76
2021/08/08 07:11:35;;;;;;;7.63;6.83;;;;;;;19.54;78.04;99477.68;154392;1093;103215;-75
2021/08/08 07:14:39;;;;;;;6.60;5.90;;;;;;;19.46;78.28;99480.72;154334;1093;103110;-76
2021/08/08 07:17:42;;;;;;;7.03;6.33;;;;;;;19.43;78.14;99497.41;154062;1100;103237;-76
2021/08/08 07:20:46;;;;;;;8.68;5.93;;;;;;;19.43;77.84;99505.52;154075;1093;103496;-75
2021/08/08 07:23:49;;;;;;;7.00;4.70;;;;;;;19.39;77.90;99494.33;154104;1093;103128;-75
2021/08/08 07:26:53;;;;;;;4.87;4.37;;;;;;;19.35;77.89;99503.96;154397;1093;103197;-74
2021/08/08 07:29:57;;;;;;;4.40;3.90;;;;;;;19.38;78.01;99510.78;153950;1094;103199;-75
2021/08/08 07:33:00;;;;;;;4.43;4.03;;;;;;;19.38;77.81;99508.92;154099;1101;103125;-75
2021/08/08 07:36:03;;;;;;;5.00;3.67;;;;;;;19.49;77.99;99522.72;153945;1095;103292;-76
2021/08/08 07:39:06;;;;;;;3.90;3.20;;;;;;;19.64;77.19;99517.71;153990;1094;103097;-75
2021/08/08 07:42:09;;;;;;;3.40;3.00;;;;;;;19.75;77.30;99508.84;153980;1095;103128;-75
2021/08/08 07:45:13;;;;;;;3.60;2.70;;;;;;;19.93;77.22;99529.58;154038;1093;103174;-75
2021/08/08 07:48:16;;;;;;;3.00;2.70;;;;;;;20.10;77.31;99545.17;154176;1098;103585;-75
2021/08/08 07:51:19;;;;;;;2.95;2.50;;;;;;;20.20;76.80;99561.66;153960;1101;103299;-76
2021/08/08 07:54:22;;;;;;;3.65;2.50;;;;;;;20.35;76.98;99564.74;153990;1093;103232;-76
2021/08/08 07:57:26;;;;;;;3.57;2.50;;;;;;;20.35;76.00;99572.88;154061;1093;103192;-75
2021/08/08 08:00:29;;;;;;;2.78;2.25;;;;;;;20.32;76.44;99572.52;154007;1100;103210;-74
2021/08/08 08:03:36;;;;;;;2.60;2.10;;;;;;;20.30;76.14;99586.28;154508;1093;103183;-74
2021/08/08 08:06:43;;;;;;;2.03;1.80;;;;;;;20.41;76.46;99590.08;153980;1093;103103;-77
2021/08/08 08:09:52;;;;;;;2.03;1.73;;;;;;;20.49;75.44;99594.33;154017;1093;103263;-77
2021/08/08 08:12:57;;;;;;;2.75;1.90;;;;;;;20.57;75.87;99597.53;154540;1098;104630;-75
2021/08/08 08:16:00;;;;;;;4.03;2.37;;;;;;;20.61;75.59;99592.47;153985;1093;103134;-75
2021/08/08 08:19:04;;;;;;;1.98;1.78;;;;;;;20.72;75.41;99597.08;154168;1098;103043;-73
2021/08/08 08:22:07;;;;;;;2.63;1.93;;;;;;;20.83;75.61;99600.86;153940;1100;103254;-75
2021/08/08 08:25:19;;;;;;;3.75;2.20;;;;;;;20.94;75.31;99596.50;154441;1093;103195;-78
2021/08/08 08:28:29;;;;;;;3.83;1.88;;;;;;;20.94;74.98;99602.73;153967;1100;103212;-74
2021/08/08 08:31:32;;;;;;;2.03;1.70;;;;;;;20.89;74.87;99618.07;153956;1094;103107;-75
2021/08/08 08:34:36;;;;;;;1.97;1.70;;;;;;;20.71;74.15;99633.39;154589;1098;103118;-75
2021/08/08 08:37:46;;;;;;;2.68;1.73;;;;;;;20.63;75.30;99639.17;154127;1098;103360;-75
2021/08/08 08:40:58;;;;;;;2.30;1.70;;;;;;;20.63;74.95;99641.88;153943;1100;103242;-75
2021/08/08 08:44:11;;;;;;;2.18;1.38;;;;;;;20.64;75.09;99638.09;154348;1093;103104;-75
2021/08/08 08:47:26;;;;;;;1.90;1.50;;;;;;;20.73;74.51;99655.67;153990;1100;103563;-79
2021/08/08 08:51:06;;;;;;;2.73;1.90;;;;;;;20.84;74.96;99653.19;154065;1093;103209;-77
2021/08/08 08:54:10;;;;;;;3.88;2.20;;;;;;;20.98;74.55;99641.06;154132;1098;103206;-74
2021/08/08 08:57:15;;;;;;;2.78;2.20;;;;;;;21.11;74.87;99643.53;153989;1100;103125;-74
2021/08/08 09:00:22;;;;;;;1.90;1.67;;;;;;;21.28;74.07;99640.08;154632;1093;103121;-75
2021/08/08 09:03:25;;;;;;;3.77;2.30;;;;;;;21.52;74.42;99649.04;154653;1098;103109;-74
2021/08/08 09:06:28;;;;;;;3.10;2.25;;;;;;;21.74;73.73;99654.63;154627;1093;103106;-75
2021/08/08 09:09:33;;;;;;;3.20;2.10;;;;;;;21.91;73.23;99663.66;154595;1092;103305;-75
2021/08/08 09:12:37;;;;;;;2.05;1.85;;;;;;;22.05;73.16;99675.05;154220;1098;103217;-76
2021/08/08 09:15:42;;;;;;;2.63;1.90;;;;;;;22.19;73.01;99678.32;154193;1098;103115;-75
2021/08/08 09:18:50;;;;;;;2.30;2.00;;;;;;;22.37;73.31;99701.77;154620;1098;103187;-75
2021/08/08 09:21:54;;;;;;;2.17;1.97;;;;;;;22.60;72.73;99700.81;154220;1098;103097;-75
2021/08/08 09:24:58;;;;;;;4.03;2.33;;;;;;;22.78;72.72;99696.20;154266;1098;103195;-75
2021/08/08 09:28:09;;;;;;;5.37;3.97;;;;;;;22.84;70.29;99690.58;154622;1093;103192;-75
2021/08/08 09:31:20;;;;;;;2.90;2.10;;;;;;;22.87;71.84;99684.66;154248;1093;103204;-75
2021/08/08 09:34:25;;;;;;;2.50;2.13;;;;;;;22.91;72.16;99679.55;154604;1098;103140;-75
2021/08/08 09:37:28;;;;;;;2.10;1.80;;;;;;;23.02;71.94;99678.63;154651;1093;103208;-75
2021/08/08 09:40:32;;;;;;;2.97;1.80;;;;;;;23.19;71.99;99685.96;154590;1098;103389;-75
2021/08/08 09:43:35;;;;;;;3.15;1.70;;;;;;;23.31;70.98;99689.42;154614;1098;103305;-75
2021/08/08 09:46:38;;;;;;;2.90;1.60;;;;;;;23.42;70.93;99693.94;154634;1098;103140;-76
2021/08/08 09:49:41;;;;;;;2.30;1.70;;;;;;;23.57;71.06;99704.19;154604;1098;103133;-75
2021/08/08 09:52:51;;;;;;;2.43;1.87;;;;;;;23.76;69.97;99707.42;154596;1098;103138;-76
2021/08/08 09:55:54;;;;;;;3.40;2.30;;;;;;;23.89;70.31;99712.52;154639;1093;103583;-76
2021/08/08 09:59:05;;;;;;;1.90;1.70;;;;;;;23.91;69.90;99715.81;154625;1092;103184;-75
2021/08/08 10:02:08;;;;;;;;;;;;;;;23.82;69.13;99733.68;154619;1093;103200;-75
2021/08/08 10:05:11;;;;;;;3.77;1.83;;;;;;;23.78;69.12;99728.97;154622;1093;103208;-75
2021/08/08 10:08:15;;;;;;;3.10;1.80;;;;;;;23.84;69.29;99742.42;154620;1098;103195;-75
2021/08/08 10:11:19;;;;;;;2.15;1.88;;;;;;;23.89;68.82;99733.50;154613;1098;103253;-75
2021/08/08 10:14:23;;;;;;;2.45;1.78;;;;;;;23.89;67.81;99758.84;154636;1098;103572;-76
2021/08/08 10:17:26;;;;;;;2.58;1.98;;;;;;;23.85;67.46;99754.98;154641;1098;103585;-76
2021/08/08 10:20:30;;;;;;;1.83;1.70;;;;;;;23.82;67.38;99765.55;154554;1098;103173;-75
2021/08/08 10:23:36;;;;;;;2.20;2.00;;;;;;;23.77;67.79;99769.02;154638;1098;103107;-75
2021/08/08 10:26:38;;;;;;;2.30;2.10;;;;;;;23.76;67.38;99774.71;154617;1093;103320;-75
2021/08/08 10:29:41;;;;;;;2.00;1.80;;;;;;;23.65;67.20;99773.73;154645;1098;103156;-75
2021/08/08 10:32:45;;;;;;;3.20;1.80;;;;;;;23.60;67.75;99769.05;154581;1093;103188;-75
2021/08/08 10:35:48;;;;;;;2.10;1.90;;;;;;;23.53;66.84;99771.13;154642;1098;103560;-76
2021/08/08 10:38:54;;;;;;;2.03;1.80;;;;;;;23.45;67.41;99768.84;154611;1098;103210;-75
2021/08/08 10:42:01;;;;;;;3.43;2.10;;;;;;;23.54;66.86;99778.23;154645;1093;103560;-75
2021/08/08 10:45:05;;;;;;;2.97;2.67;;;;;;;23.65;66.48;99787.36;154636;1098;103141;-75
2021/08/08 10:48:09;;;;;;;2.25;2.00;;;;;;;23.76;66.55;99783.70;154604;1094;103188;-75
2021/08/08 10:51:23;;;;;;;2.23;2.00;;;;;;;23.89;66.88;99785.27;154582;1098;103144;-73
2021/08/08 10:54:26;;;;;;;2.23;1.90;;;;;;;23.86;66.82;99783.86;154665;1098;103131;-75
2021/08/08 10:57:40;;;;;;;2.33;1.97;;;;;;;23.88;66.62;99781.73;154607;1098;103191;-75
2021/08/08 11:00:44;;;;;;;2.43;2.00;;;;;;;23.97;66.42;99784.83;154685;1093;103560;-75
2021/08/08 11:03:54;;;;;;;2.00;1.68;;;;;;;24.16;66.17;99796.24;154655;1093;103162;-75
2021/08/08 11:06:58;;;;;;;1.93;1.73;;;;;;;24.28;64.92;99793.38;154630;1093;103189;-75
2021/08/08 11:10:00;;;;;;;1.87;1.67;;;;;;;24.24;64.50;99803.97;154559;1093;103208;-74
2021/08/08 11:13:04;;;;;;;1.90;1.50;;;;;;;24.35;62.12;99798.66;154622;1098;103269;-74
2021/08/08 11:16:13;;;;;;;1.87;1.67;;;;;;;24.36;62.65;99805.73;154641;1093;103189;-74
2021/08/08 11:19:16;;;;;;;1.95;1.65;;;;;;;24.45;63.89;99817.84;154629;1093;103128;-74
2021/08/08 11:22:20;;;;;;;2.43;1.90;;;;;;;24.53;64.51;99811.95;154593;1093;103127;-76
2021/08/08 11:25:23;;;;;;;1.80;1.60;;;;;;;24.68;64.38;99806.66;154623;1093;103200;-75
2021/08/08 11:28:26;;;;;;;2.40;1.50;;;;;;;24.70;64.24;99814.59;154691;1093;103278;-75
2021/08/08 11:31:31;;;;;;;2.90;1.50;;;;;;;24.77;64.76;99811.64;154676;1098;103144;-78
2021/08/08 11:34:34;;;;;;;2.03;1.60;;;;;;;24.79;64.13;99814.94;154717;1098;103115;-76
2021/08/08 11:37:39;;;;;;;2.18;1.70;;;;;;;24.74;63.19;99812.18;154621;1093;103188;-78
2021/08/08 11:40:44;;;;;;;2.13;1.60;;;;;;;24.75;64.07;99805.63;154737;1098;103161;-75
2021/08/08 11:43:47;;;;;;;1.63;1.53;;;;;;;24.69;63.37;99810.20;154752;1093;103291;-76
2021/08/08 11:46:52;;;;;;;2.33;1.50;;;;;;;24.51;62.93;99822.30;154640;1093;103095;-77
2021/08/08 11:49:57;;;;;;;2.43;1.70;;;;;;;24.25;61.62;99827.44;154346;1098;103201;-74
2021/08/08 11:53:02;;;;;;;3.50;1.60;;;;;;;24.04;63.11;99817.36;154684;1098;103122;-75
2021/08/08 11:56:16;;;;;;;1.75;1.50;;;;;;;23.86;62.83;99813.83;154671;1098;103145;-75
2021/08/08 11:59:27;;;;;;;1.60;1.50;;;;;;;23.72;62.67;99817.97;154693;1093;103193;-71
2021/08/08 12:02:30;;;;;;;1.93;1.60;;;;;;;23.63;63.30;99816.75;154778;1098;103188;-71
2021/08/08 12:05:34;;;;;;;1.80;1.60;;;;;;;23.62;63.46;99828.73;154620;1098;103190;-71
2021/08/08 12:08:37;;;;;;;2.83;1.60;;;;;;;23.68;63.74;99833.17;154640;1093;103121;-73
2021/08/08 12:11:51;;;;;;;1.83;1.53;;;;;;;23.70;62.23;99842.73;154652;1093;103189;-75
2021/08/08 12:14:58;;;;;;;1.77;1.57;;;;;;;23.74;62.16;99851.23;154723;1093;103184;-72
2021/08/08 12:18:02;;;;;;;1.77;1.43;;;;;;;23.81;62.69;99851.11;154750;1098;103188;-70
2021/08/08 12:21:15;;;;;;;2.50;1.50;;;;;;;23.86;62.18;99859.34;154612;1098;103123;-73
2021/08/08 12:24:17;;;;;;;1.90;1.50;;;;;;;23.85;61.52;99863.97;154668;1093;103094;-72
2021/08/08 12:27:32;;;;;;;2.45;1.60;;;;;;;23.90;61.71;99861.33;154659;1098;103096;-75
2021/08/08 12:30:35;;;;;;;2.55;1.58;;;;;;;24.11;61.62;99869.77;154599;1098;103182;-72
2021/08/08 12:33:39;;;;;;;1.77;1.60;;;;;;;24.21;61.33;99867.19;154777;1098;103109;-73
2021/08/08 12:36:43;;;;;;;1.60;1.50;;;;;;;24.27;61.59;99860.72;154587;1098;103144;-74
2021/08/08 12:39:46;;;;;;;1.93;1.58;;;;;;;24.39;61.57;99866.05;154376;1098;103131;-75
2021/08/08 12:42:49;;;;;;;1.90;1.70;;;;;;;24.53;61.08;99858.33;154654;1098;103485;-78
2021/08/08 12:45:53;;;;;;;1.97;1.60;;;;;;;24.51;60.82;99871.40;154783;1093;103253;-77
2021/08/08 12:49:00;;;;;;;1.70;1.50;;;;;;;24.47;61.07;99871.05;154749;1098;103198;-76
2021/08/08 12:52:04;;;;;;;2.00;1.40;;;;;;;24.53;60.30;99877.42;154719;1093;103724;-76
2021/08/08 12:55:09;;;;;;;1.53;1.40;;;;;;;24.54;60.10;99879.08;154644;1093;103124;-76
2021/08/08 12:58:12;;;;;;;1.70;1.40;;;;;;;24.55;59.88;99888.08;154206;1098;103096;-72
2021/08/08 13:01:20;;;;;;;1.70;1.43;;;;;;;24.54;59.75;99887.27;154582;1098;103272;-76
2021/08/08 13:04:23;;;;;;;1.90;1.50;;;;;;;24.37;59.25;99881.02;154968;1098;103109;-73
2021/08/08 13:07:26;;;;;;;1.98;1.50;;;;;;;24.29;59.69;99880.38;154256;1098;103218;-78
2021/08/08 13:10:29;;;;;;;1.93;1.50;;;;;;;24.12;59.38;99876.88;154745;1098;103150;-76
2021/08/08 13:13:31;;;;;;;3.03;2.40;;;;;;;23.95;59.47;99885.09;154636;1093;103161;-77
2021/08/08 13:16:34;;;;;;;2.78;1.90;;;;;;;23.87;58.35;99885.52;154723;1093;103170;-81
2021/08/08 13:19:37;;;;;;;3.00;1.43;;;;;;;23.80;59.21;99893.85;154644;1098;103227;-75
2021/08/08 13:22:41;;;;;;;2.30;1.37;;;;;;;23.83;59.82;99898.81;154623;1098;103198;-76
2021/08/08 13:25:43;;;;;;;3.17;1.53;;;;;;;23.83;59.31;99900.72;154662;1098;103186;-75
2021/08/08 13:28:46;;;;;;;1.70;1.40;;;;;;;23.83;59.10;99895.27;154670;1098;103196;-79
2021/08/08 13:31:49;;;;;;;1.70;1.57;;;;;;;23.86;59.18;99881.95;154729;1098;103242;-78
2021/08/08 13:34:52;;;;;;;1.90;1.60;;;;;;;23.91;58.97;99883.94;154630;1093;103192;-77
2021/08/08 13:37:55;;;;;;;1.97;1.63;;;;;;;23.97;59.26;99893.02;154678;1098;103100;-78
2021/08/08 13:40:58;;;;;;;3.10;1.60;;;;;;;23.96;58.86;99892.20;154579;1098;103214;-73
2021/08/08 13:44:01;;;;;;;3.03;1.70;;;;;;;23.99;58.50;99899.04;154560;1093;103190;-76
2021/08/08 13:47:04;;;;;;;2.23;1.40;;;;;;;24.05;58.76;99907.02;154763;1093;103135;-76
2021/08/08 13:50:09;;;;;;;2.30;1.55;;;;;;;24.15;58.85;99898.16;154611;1098;103230;-83
2021/08/08 13:53:11;;;;;;;2.80;1.70;;;;;;;24.24;58.62;99893.94;154855;1098;103266;-75
2021/08/08 13:56:14;;;;;;;1.70;1.40;;;;;;;24.35;58.75;99899.54;154696;1098;103124;-75
2021/08/08 13:59:17;;;;;;;1.90;1.40;;;;;;;24.46;58.88;99901.30;154494;1093;103150;-75
2021/08/08 14:02:20;;;;;;;2.33;1.40;;;;;;;24.57;58.25;99894.10;154229;1093;103601;-78
2021/08/08 14:05:23;;;;;;;2.40;1.47;;;;;;;24.58;58.80;99899.31;154688;1098;103174;-80
2021/08/08 14:08:25;;;;;;;1.93;1.50;;;;;;;24.54;57.98;99900.91;154782;1098;103597;-78